Delta, UT

8:24 AM MDT on April 25, 2015 (GMT -0600)
Oak City | | Change Station
CLOSE
Current Station
Personal Weather Station
Location: Oak City, UT
Elevation: 5135 ft
Nearby Weather Stations

Elev 5135 ft 39.37 °N, 112.33 °W | Updated 4 minutes ago

Overcast
Overcast
46.5 °F
Feels Like 41 °F
N
11.0
Wind Variable Wind from North
Gusts 11.0 mph

Today
High -- | Low -- °F
--% Chance of Precip.
Yesterday
High -- | Low -- °F
Precip. -- in
6:39 AM 8:17 PM
Waxing Crescent, 46% visible
Pressure 29.83 in
Visibility 10.0 miles
Clouds Few 5500 ft
Scattered Clouds 9500 ft
Mostly Cloudy 12000 ft
Windchill 41 °F
Dew Point 41 °F
Humidity 80%
Rainfall 0.00 in
Snow Depth Not available.
UV 0 out of 12
Pollen 9.30 out of 12
Air Quality Not available.
Flu Activity Local Activity
METAR KPVU 251355Z 00000KT 10SM FEW055 SCT095 BKN120 06/04 A2983

More Conditions Fewer Conditions

Pressure 29.83 in
Visibility 10.0 miles
Clouds Few 5500 ft
Scattered Clouds 9500 ft
Mostly Cloudy 12000 ft
Windchill 41 °F
Dew Point 41 °F
Humidity 80%
Rainfall 0.00 in
Snow Depth Not available.
UV 0 out of 12
Pollen 9.30 out of 12
Air Quality Not available.
Flu Activity Local Activity
METAR KPVU 251355Z 00000KT 10SM FEW055 SCT095 BKN120 06/04 A2983

More Conditions Fewer Conditions

10-Day Weather Forecast

Almanac

Astronomy

Apr. 25, 2015 Rise Set
Actual Time
Civil Twilight
Nautical Twilight
Astronomical Twilight
Moon
Length of Visible Light
Length of Day
Tomorrow will be .
, % of the Moon is Illuminated

Today's Extremes

State Highs State Lows

Community

WunderPhotos

Upload Photos

1,816,686 photos uploaded!

WunderBlogs® & News

Nearby

Air Quality

  Air Quality AQ Index Pollutant
Not available.

Snow Depth

Station Depth Elevation

Earthquake Activity

City Distance Mag. Time & Date
Minimum magnitude displayed is 2.5.

Coastal Water Temperatures

Place Temperature

Stations

Nearby Weather Stations

Station Location Temp. Windchill Dew Point Humidity Wind Precip. Elev Updated Type